ROTM

Details ICAO ROTM
Name FUTENMA MCAS
Region Japan
Timezone Asia/Tokyo (UTC+9.0)
Plans Departing 8
Arriving 11
Stats Elevation 247 ft / 75 m (AMSL)
Location 26.274132° 127.756266°
Runways 1
Magnetic Variation 5.294° W
Sunrise 2018-05-24 20:39:51 UTC / 2018-05-25 05:39:51 Local
Sunset 2018-05-25 10:14:46 UTC / 2018-05-25 19:14:46 Local
Advertisement - Login to hide

Runways

ID Width Length Bearing (true) Bearing (mag) Surface Threshold Offset Overrun Length
06 150 ft / 46 m 9,187 ft / 2,800 m 54.84° 60.13° Asphalt 0 ft / 0 m 182 ft / 55 m
24 150 ft / 46 m 9,187 ft / 2,800 m 234.85° 240.14° Asphalt 0 ft / 0 m 0 ft / 0 m

Map

Weather


0- 5 10 15 20 25 30 35+ Temperature / ° C

Clouds and Precipitation
Forecast for 2018-05-24 18:00 UTC. Updated 5 hours ago

Ground ~20,000 ft ~40,000 ft Winds

METAR

ROTM 242056Z 00000KT 9999 SKC 21/18 A2983 RMK SLP087 STNPR29530 T02110178 58017

TAF

TAF ROTM 2421/2521 VRB06KT 9999 FEW025 QNH2977INS T28/2504Z T23/2520Z

Frequencies

Ground 122.80 MHz GND
Tower 123.60 MHz TWR
Warning: Do not use this data for real-world aviation or navigation. No guarantee of current accuracy is given.